sensor_id;sensor_type;location;lat;lon;timestamp;temperature;humidity
17489;DHT22;8861;52.644;4.734;2022-10-30T00:01:39;16.80;99.90
17489;DHT22;8861;52.644;4.734;2022-10-30T00:04:06;16.80;99.90
17489;DHT22;8861;52.644;4.734;2022-10-30T00:06:32;16.80;99.90
17489;DHT22;8861;52.644;4.734;2022-10-30T00:08:59;16.70;99.90
17489;DHT22;8861;52.644;4.734;2022-10-30T00:11:26;16.70;99.90
17489;DHT22;8861;52.644;4.734;2022-10-30T00:13:53;16.70;99.90
17489;DHT22;8861;52.644;4.734;2022-10-30T00:16:20;16.60;99.90
17489;DHT22;8861;52.644;4.734;2022-10-30T00:18:48;16.60;99.90
17489;DHT22;8861;52.644;4.734;2022-10-30T00:21:15;16.60;99.90
17489;DHT22;8861;52.644;4.734;2022-10-30T00:23:46;16.50;99.90
17489;DHT22;8861;52.644;4.734;2022-10-30T00:26:14;16.50;99.90
17489;DHT22;8861;52.644;4.734;2022-10-30T00:28:42;16.50;99.90
17489;DHT22;8861;52.644;4.734;2022-10-30T00:31:09;16.50;99.90
17489;DHT22;8861;52.644;4.734;2022-10-30T00:33:36;16.40;99.90
17489;DHT22;8861;52.644;4.734;2022-10-30T00:36:04;16.40;99.90
17489;DHT22;8861;52.644;4.734;2022-10-30T00:38:31;16.40;99.90
17489;DHT22;8861;52.644;4.734;2022-10-30T00:40:58;16.40;99.90
17489;DHT22;8861;52.644;4.734;2022-10-30T00:43:31;16.40;99.90
17489;DHT22;8861;52.644;4.734;2022-10-30T00:46:02;16.40;99.90
17489;DHT22;8861;52.644;4.734;2022-10-30T00:48:32;16.40;99.90
17489;DHT22;8861;52.644;4.734;2022-10-30T00:51:00;16.40;99.90
17489;DHT22;8861;52.644;4.734;2022-10-30T00:53:29;16.30;99.90
17489;DHT22;8861;52.644;4.734;2022-10-30T00:55:59;16.30;99.90
17489;DHT22;8861;52.644;4.734;2022-10-30T00:58:29;16.30;99.90
17489;DHT22;8861;52.644;4.734;2022-10-30T01:00:59;16.30;99.90
17489;DHT22;8861;52.644;4.734;2022-10-30T01:03:29;16.30;99.90
17489;DHT22;8861;52.644;4.734;2022-10-30T01:06:00;16.30;99.90
17489;DHT22;8861;52.644;4.734;2022-10-30T01:08:30;16.30;99.90
17489;DHT22;8861;52.644;4.734;2022-10-30T01:10:57;16.30;99.90
17489;DHT22;8861;52.644;4.734;2022-10-30T01:13:26;16.30;99.90
17489;DHT22;8861;52.644;4.734;2022-10-30T01:16:09;16.30;99.90
17489;DHT22;8861;52.644;4.734;2022-10-30T01:18:45;16.30;99.90
17489;DHT22;8861;52.644;4.734;2022-10-30T01:21:30;16.20;99.90
17489;DHT22;8861;52.644;4.734;2022-10-30T01:24:22;16.20;99.90
17489;DHT22;8861;52.644;4.734;2022-10-30T01:27:08;16.10;99.90
17489;DHT22;8861;52.644;4.734;2022-10-30T01:29:49;16.10;99.90
17489;DHT22;8861;52.644;4.734;2022-10-30T01:32:27;16.00;99.90
17489;DHT22;8861;52.644;4.734;2022-10-30T01:35:00;16.00;99.90
17489;DHT22;8861;52.644;4.734;2022-10-30T01:37:32;16.00;99.90
17489;DHT22;8861;52.644;4.734;2022-10-30T01:40:07;16.00;99.90
17489;DHT22;8861;52.644;4.734;2022-10-30T01:42:46;16.00;99.90
17489;DHT22;8861;52.644;4.734;2022-10-30T01:45:18;15.90;99.90
17489;DHT22;8861;52.644;4.734;2022-10-30T01:48:02;15.90;99.90
17489;DHT22;8861;52.644;4.734;2022-10-30T01:50:39;15.80;99.90
17489;DHT22;8861;52.644;4.734;2022-10-30T01:53:15;15.90;99.90
17489;DHT22;8861;52.644;4.734;2022-10-30T01:55:52;15.90;99.90
17489;DHT22;8861;52.644;4.734;2022-10-30T01:58:22;15.90;99.90
17489;DHT22;8861;52.644;4.734;2022-10-30T02:00:54;15.80;99.90
17489;DHT22;8861;52.644;4.734;2022-10-30T02:03:22;15.80;99.90
17489;DHT22;8861;52.644;4.734;2022-10-30T02:05:51;15.80;99.90
17489;DHT22;8861;52.644;4.734;2022-10-30T02:08:19;15.80;99.90
17489;DHT22;8861;52.644;4.734;2022-10-30T02:10:49;15.80;99.90
17489;DHT22;8861;52.644;4.734;2022-10-30T02:13:17;15.80;99.90
17489;DHT22;8861;52.644;4.734;2022-10-30T02:15:45;15.80;99.90
17489;DHT22;8861;52.644;4.734;2022-10-30T02:18:13;15.70;99.90
17489;DHT22;8861;52.644;4.734;2022-10-30T02:20:41;15.70;99.90
17489;DHT22;8861;52.644;4.734;2022-10-30T02:23:08;15.70;99.90
17489;DHT22;8861;52.644;4.734;2022-10-30T02:25:37;15.70;99.90
17489;DHT22;8861;52.644;4.734;2022-10-30T02:28:04;15.70;99.90
17489;DHT22;8861;52.644;4.734;2022-10-30T02:30:31;15.70;99.90
17489;DHT22;8861;52.644;4.734;2022-10-30T02:32:58;15.70;99.90
17489;DHT22;8861;52.644;4.734;2022-10-30T02:35:25;15.70;99.90
17489;DHT22;8861;52.644;4.734;2022-10-30T02:37:53;15.70;99.90
17489;DHT22;8861;52.644;4.734;2022-10-30T02:40:20;15.70;99.90
17489;DHT22;8861;52.644;4.734;2022-10-30T02:42:51;15.70;99.90
17489;DHT22;8861;52.644;4.734;2022-10-30T02:45:18;15.60;99.90
17489;DHT22;8861;52.644;4.734;2022-10-30T02:47:45;15.60;99.90
17489;DHT22;8861;52.644;4.734;2022-10-30T02:50:12;15.70;99.90
17489;DHT22;8861;52.644;4.734;2022-10-30T02:52:39;15.60;99.90
17489;DHT22;8861;52.644;4.734;2022-10-30T02:55:08;15.60;99.90
17489;DHT22;8861;52.644;4.734;2022-10-30T02:57:34;15.60;99.90
17489;DHT22;8861;52.644;4.734;2022-10-30T03:00:02;15.60;99.90
17489;DHT22;8861;52.644;4.734;2022-10-30T03:02:29;15.50;99.90
17489;DHT22;8861;52.644;4.734;2022-10-30T03:04:56;15.50;99.90
17489;DHT22;8861;52.644;4.734;2022-10-30T03:07:22;15.50;99.90
17489;DHT22;8861;52.644;4.734;2022-10-30T03:09:49;15.50;99.90
17489;DHT22;8861;52.644;4.734;2022-10-30T03:12:18;15.60;99.90
17489;DHT22;8861;52.644;4.734;2022-10-30T03:14:45;15.50;99.90
17489;DHT22;8861;52.644;4.734;2022-10-30T03:17:11;15.50;99.90
17489;DHT22;8861;52.644;4.734;2022-10-30T03:19:38;15.50;99.90
17489;DHT22;8861;52.644;4.734;2022-10-30T03:22:06;15.50;99.90
17489;DHT22;8861;52.644;4.734;2022-10-30T03:24:33;15.50;99.90
17489;DHT22;8861;52.644;4.734;2022-10-30T03:27:00;15.40;99.90
17489;DHT22;8861;52.644;4.734;2022-10-30T03:29:28;15.40;99.90
17489;DHT22;8861;52.644;4.734;2022-10-30T03:31:55;15.40;99.90
17489;DHT22;8861;52.644;4.734;2022-10-30T03:34:22;15.30;99.90
17489;DHT22;8861;52.644;4.734;2022-10-30T03:36:49;15.40;99.90
17489;DHT22;8861;52.644;4.734;2022-10-30T03:39:16;15.30;99.90
17489;DHT22;8861;52.644;4.734;2022-10-30T03:41:42;15.30;99.90
17489;DHT22;8861;52.644;4.734;2022-10-30T03:44:09;15.20;99.90
17489;DHT22;8861;52.644;4.734;2022-10-30T03:46:37;15.20;99.90
17489;DHT22;8861;52.644;4.734;2022-10-30T03:49:04;15.20;99.90
17489;DHT22;8861;52.644;4.734;2022-10-30T03:51:31;15.10;99.90
17489;DHT22;8861;52.644;4.734;2022-10-30T03:53:58;15.10;99.90
17489;DHT22;8861;52.644;4.734;2022-10-30T03:56:24;15.00;99.90
17489;DHT22;8861;52.644;4.734;2022-10-30T03:58:51;15.00;99.90
17489;DHT22;8861;52.644;4.734;2022-10-30T04:01:18;15.00;99.90
17489;DHT22;8861;52.644;4.734;2022-10-30T04:03:46;14.90;99.90
17489;DHT22;8861;52.644;4.734;2022-10-30T04:06:13;14.90;99.90
17489;DHT22;8861;52.644;4.734;2022-10-30T04:08:40;14.90;99.90
17489;DHT22;8861;52.644;4.734;2022-10-30T04:11:09;14.90;99.90
17489;DHT22;8861;52.644;4.734;2022-10-30T04:13:36;14.80;99.90
17489;DHT22;8861;52.644;4.734;2022-10-30T04:16:04;14.80;99.90
17489;DHT22;8861;52.644;4.734;2022-10-30T04:18:31;14.80;99.90
17489;DHT22;8861;52.644;4.734;2022-10-30T04:20:59;14.70;99.90
17489;DHT22;8861;52.644;4.734;2022-10-30T04:23:26;14.70;99.90
17489;DHT22;8861;52.644;4.734;2022-10-30T04:25:53;14.60;99.90
17489;DHT22;8861;52.644;4.734;2022-10-30T04:28:20;14.60;99.90
17489;DHT22;8861;52.644;4.734;2022-10-30T04:30:47;14.50;99.90
17489;DHT22;8861;52.644;4.734;2022-10-30T04:33:14;14.50;99.90
17489;DHT22;8861;52.644;4.734;2022-10-30T04:35:41;14.50;99.90
17489;DHT22;8861;52.644;4.734;2022-10-30T04:38:11;14.40;99.90
17489;DHT22;8861;52.644;4.734;2022-10-30T04:40:40;14.30;99.90
17489;DHT22;8861;52.644;4.734;2022-10-30T04:43:08;14.30;99.90
17489;DHT22;8861;52.644;4.734;2022-10-30T04:45:36;14.30;99.90
17489;DHT22;8861;52.644;4.734;2022-10-30T04:48:05;14.20;99.90
17489;DHT22;8861;52.644;4.734;2022-10-30T04:50:33;14.20;99.90
17489;DHT22;8861;52.644;4.734;2022-10-30T04:53:01;14.10;99.90
17489;DHT22;8861;52.644;4.734;2022-10-30T04:55:30;14.10;99.90
17489;DHT22;8861;52.644;4.734;2022-10-30T04:57:58;14.10;99.90
17489;DHT22;8861;52.644;4.734;2022-10-30T05:00:25;14.10;99.90
17489;DHT22;8861;52.644;4.734;2022-10-30T05:02:52;14.00;99.90
17489;DHT22;8861;52.644;4.734;2022-10-30T05:05:19;14.10;99.90
17489;DHT22;8861;52.644;4.734;2022-10-30T05:07:46;14.00;99.90
17489;DHT22;8861;52.644;4.734;2022-10-30T05:10:13;14.00;99.90
17489;DHT22;8861;52.644;4.734;2022-10-30T05:12:43;14.00;99.90
17489;DHT22;8861;52.644;4.734;2022-10-30T05:15:11;14.00;99.90
17489;DHT22;8861;52.644;4.734;2022-10-30T05:17:38;14.00;99.90
17489;DHT22;8861;52.644;4.734;2022-10-30T05:20:06;14.00;99.90
17489;DHT22;8861;52.644;4.734;2022-10-30T05:22:33;13.90;99.90
17489;DHT22;8861;52.644;4.734;2022-10-30T05:25:00;14.00;99.90
17489;DHT22;8861;52.644;4.734;2022-10-30T05:27:27;13.90;99.90
17489;DHT22;8861;52.644;4.734;2022-10-30T05:29:55;13.90;99.90
17489;DHT22;8861;52.644;4.734;2022-10-30T05:32:22;13.90;99.90
17489;DHT22;8861;52.644;4.734;2022-10-30T05:34:49;13.90;99.90
17489;DHT22;8861;52.644;4.734;2022-10-30T05:37:16;13.90;99.90
17489;DHT22;8861;52.644;4.734;2022-10-30T05:39:42;13.90;99.90
17489;DHT22;8861;52.644;4.734;2022-10-30T05:42:09;13.90;99.90
17489;DHT22;8861;52.644;4.734;2022-10-30T05:44:36;13.90;99.90
17489;DHT22;8861;52.644;4.734;2022-10-30T05:47:04;13.80;99.90
17489;DHT22;8861;52.644;4.734;2022-10-30T05:49:31;13.80;99.90
17489;DHT22;8861;52.644;4.734;2022-10-30T05:51:58;13.80;99.90
17489;DHT22;8861;52.644;4.734;2022-10-30T05:54:24;13.80;99.90
17489;DHT22;8861;52.644;4.734;2022-10-30T05:56:51;13.70;99.90
17489;DHT22;8861;52.644;4.734;2022-10-30T05:59:18;13.70;99.90
17489;DHT22;8861;52.644;4.734;2022-10-30T06:01:45;13.70;99.90
17489;DHT22;8861;52.644;4.734;2022-10-30T06:04:13;13.70;99.90
17489;DHT22;8861;52.644;4.734;2022-10-30T06:06:40;13.70;99.90
17489;DHT22;8861;52.644;4.734;2022-10-30T06:09:06;13.70;99.90
17489;DHT22;8861;52.644;4.734;2022-10-30T06:11:33;13.70;99.90
17489;DHT22;8861;52.644;4.734;2022-10-30T06:14:00;13.70;99.90
17489;DHT22;8861;52.644;4.734;2022-10-30T06:16:27;13.70;99.90
17489;DHT22;8861;52.644;4.734;2022-10-30T06:18:54;13.70;99.90
17489;DHT22;8861;52.644;4.734;2022-10-30T06:21:22;13.60;99.90
17489;DHT22;8861;52.644;4.734;2022-10-30T06:23:49;13.60;99.90
17489;DHT22;8861;52.644;4.734;2022-10-30T06:26:16;13.60;99.90
17489;DHT22;8861;52.644;4.734;2022-10-30T06:28:42;13.60;99.90
17489;DHT22;8861;52.644;4.734;2022-10-30T06:31:09;13.50;99.90
17489;DHT22;8861;52.644;4.734;2022-10-30T06:33:36;13.60;99.90
17489;DHT22;8861;52.644;4.734;2022-10-30T06:36:03;13.50;99.90
17489;DHT22;8861;52.644;4.734;2022-10-30T06:38:32;13.50;99.90
17489;DHT22;8861;52.644;4.734;2022-10-30T06:40:59;13.50;99.90
17489;DHT22;8861;52.644;4.734;2022-10-30T06:43:25;13.50;99.90
17489;DHT22;8861;52.644;4.734;2022-10-30T06:45:52;13.50;99.90
17489;DHT22;8861;52.644;4.734;2022-10-30T06:48:19;13.60;99.90
17489;DHT22;8861;52.644;4.734;2022-10-30T06:50:46;13.60;99.90
17489;DHT22;8861;52.644;4.734;2022-10-30T06:53:13;13.50;99.90
17489;DHT22;8861;52.644;4.734;2022-10-30T06:55:41;13.60;99.90
17489;DHT22;8861;52.644;4.734;2022-10-30T06:58:07;13.60;99.90
17489;DHT22;8861;52.644;4.734;2022-10-30T07:00:34;13.60;99.90
17489;DHT22;8861;52.644;4.734;2022-10-30T07:03:01;13.70;99.90
17489;DHT22;8861;52.644;4.734;2022-10-30T07:05:29;13.60;99.90
17489;DHT22;8861;52.644;4.734;2022-10-30T07:07:56;13.70;99.90
17489;DHT22;8861;52.644;4.734;2022-10-30T07:10:23;13.70;99.90
17489;DHT22;8861;52.644;4.734;2022-10-30T07:12:53;13.70;99.90
17489;DHT22;8861;52.644;4.734;2022-10-30T07:15:20;13.70;99.90
17489;DHT22;8861;52.644;4.734;2022-10-30T07:17:54;13.80;99.90
17489;DHT22;8861;52.644;4.734;2022-10-30T07:20:21;13.80;99.90
17489;DHT22;8861;52.644;4.734;2022-10-30T07:22:51;13.80;99.90
17489;DHT22;8861;52.644;4.734;2022-10-30T07:25:18;13.90;99.90
17489;DHT22;8861;52.644;4.734;2022-10-30T07:27:47;13.90;99.90
17489;DHT22;8861;52.644;4.734;2022-10-30T07:30:17;14.00;99.90
17489;DHT22;8861;52.644;4.734;2022-10-30T07:32:44;14.00;99.90
17489;DHT22;8861;52.644;4.734;2022-10-30T07:35:12;14.10;99.90
17489;DHT22;8861;52.644;4.734;2022-10-30T07:37:39;14.20;99.90
17489;DHT22;8861;52.644;4.734;2022-10-30T07:40:07;14.20;99.90
17489;DHT22;8861;52.644;4.734;2022-10-30T07:42:34;14.40;99.90
17489;DHT22;8861;52.644;4.734;2022-10-30T07:45:01;14.40;99.90
17489;DHT22;8861;52.644;4.734;2022-10-30T07:47:30;14.50;99.90
17489;DHT22;8861;52.644;4.734;2022-10-30T07:49:56;14.50;99.90
17489;DHT22;8861;52.644;4.734;2022-10-30T07:52:23;14.60;99.90
17489;DHT22;8861;52.644;4.734;2022-10-30T07:54:50;14.60;99.90
17489;DHT22;8861;52.644;4.734;2022-10-30T07:57:17;14.60;99.90
17489;DHT22;8861;52.644;4.734;2022-10-30T07:59:43;14.60;99.90
17489;DHT22;8861;52.644;4.734;2022-10-30T08:02:10;14.70;99.90
17489;DHT22;8861;52.644;4.734;2022-10-30T08:04:38;14.70;99.90
17489;DHT22;8861;52.644;4.734;2022-10-30T08:07:05;14.80;99.90
17489;DHT22;8861;52.644;4.734;2022-10-30T08:09:32;14.90;99.90
17489;DHT22;8861;52.644;4.734;2022-10-30T08:11:59;15.00;99.90
17489;DHT22;8861;52.644;4.734;2022-10-30T08:14:26;15.20;99.90
17489;DHT22;8861;52.644;4.734;2022-10-30T08:16:52;15.30;99.90
17489;DHT22;8861;52.644;4.734;2022-10-30T08:19:19;15.40;99.90
17489;DHT22;8861;52.644;4.734;2022-10-30T08:21:48;15.50;99.90
17489;DHT22;8861;52.644;4.734;2022-10-30T08:24:14;15.60;99.90
17489;DHT22;8861;52.644;4.734;2022-10-30T08:26:41;15.60;99.90
17489;DHT22;8861;52.644;4.734;2022-10-30T08:29:08;15.60;99.90
17489;DHT22;8861;52.644;4.734;2022-10-30T08:31:35;15.60;99.90
17489;DHT22;8861;52.644;4.734;2022-10-30T08:34:02;15.60;99.90
17489;DHT22;8861;52.644;4.734;2022-10-30T08:36:29;15.60;99.90
17489;DHT22;8861;52.644;4.734;2022-10-30T08:38:57;15.50;99.90
17489;DHT22;8861;52.644;4.734;2022-10-30T08:41:24;15.50;99.90
17489;DHT22;8861;52.644;4.734;2022-10-30T08:43:51;15.60;99.90
17489;DHT22;8861;52.644;4.734;2022-10-30T08:46:18;15.60;99.90
17489;DHT22;8861;52.644;4.734;2022-10-30T08:48:45;15.70;99.90
17489;DHT22;8861;52.644;4.734;2022-10-30T08:51:12;15.70;99.90
17489;DHT22;8861;52.644;4.734;2022-10-30T08:53:38;15.90;99.90
17489;DHT22;8861;52.644;4.734;2022-10-30T08:56:07;16.00;99.90
17489;DHT22;8861;52.644;4.734;2022-10-30T08:58:34;16.10;99.90
17489;DHT22;8861;52.644;4.734;2022-10-30T09:01:00;16.10;99.90
17489;DHT22;8861;52.644;4.734;2022-10-30T09:03:27;16.20;99.90
17489;DHT22;8861;52.644;4.734;2022-10-30T09:05:57;16.30;99.90
17489;DHT22;8861;52.644;4.734;2022-10-30T09:08:24;16.30;99.90
17489;DHT22;8861;52.644;4.734;2022-10-30T09:10:53;16.40;99.90
17489;DHT22;8861;52.644;4.734;2022-10-30T09:13:22;16.50;99.90
17489;DHT22;8861;52.644;4.734;2022-10-30T09:15:49;16.50;99.90
17489;DHT22;8861;52.644;4.734;2022-10-30T09:18:15;16.60;99.90
17489;DHT22;8861;52.644;4.734;2022-10-30T09:20:42;16.60;99.90
17489;DHT22;8861;52.644;4.734;2022-10-30T09:23:09;16.70;99.90
17489;DHT22;8861;52.644;4.734;2022-10-30T09:25:36;16.70;99.90
17489;DHT22;8861;52.644;4.734;2022-10-30T09:28:03;16.80;99.90
17489;DHT22;8861;52.644;4.734;2022-10-30T09:30:31;16.80;99.90
17489;DHT22;8861;52.644;4.734;2022-10-30T09:33:00;16.80;99.90
17489;DHT22;8861;52.644;4.734;2022-10-30T09:35:28;16.80;99.90
17489;DHT22;8861;52.644;4.734;2022-10-30T09:37:55;16.80;99.90
17489;DHT22;8861;52.644;4.734;2022-10-30T09:40:30;16.90;99.90
17489;DHT22;8861;52.644;4.734;2022-10-30T09:43:06;16.90;99.90
17489;DHT22;8861;52.644;4.734;2022-10-30T09:51:52;17.20;99.90
17489;DHT22;8861;52.644;4.734;2022-10-30T09:54:26;17.40;99.90
17489;DHT22;8861;52.644;4.734;2022-10-30T09:57:04;17.50;99.90
17489;DHT22;8861;52.644;4.734;2022-10-30T09:59:42;17.70;99.90
17489;DHT22;8861;52.644;4.734;2022-10-30T10:02:23;17.80;99.90
17489;DHT22;8861;52.644;4.734;2022-10-30T10:04:56;17.90;99.90
17489;DHT22;8861;52.644;4.734;2022-10-30T10:07:28;18.00;99.90
17489;DHT22;8861;52.644;4.734;2022-10-30T10:09:59;18.10;99.90
17489;DHT22;8861;52.644;4.734;2022-10-30T10:12:29;18.30;99.90
17489;DHT22;8861;52.644;4.734;2022-10-30T10:15:00;18.40;99.90
17489;DHT22;8861;52.644;4.734;2022-10-30T10:17:34;18.50;99.90
17489;DHT22;8861;52.644;4.734;2022-10-30T10:20:02;18.60;99.90
17489;DHT22;8861;52.644;4.734;2022-10-30T10:22:35;18.60;99.90
17489;DHT22;8861;52.644;4.734;2022-10-30T10:25:07;18.70;99.90
17489;DHT22;8861;52.644;4.734;2022-10-30T10:27:46;18.70;99.90
17489;DHT22;8861;52.644;4.734;2022-10-30T10:30:16;18.80;99.90
17489;DHT22;8861;52.644;4.734;2022-10-30T10:36:03;18.80;99.90
17489;DHT22;8861;52.644;4.734;2022-10-30T10:38:44;18.80;99.90
17489;DHT22;8861;52.644;4.734;2022-10-30T10:41:18;18.70;99.90
17489;DHT22;8861;52.644;4.734;2022-10-30T10:43:59;18.60;99.90
17489;DHT22;8861;52.644;4.734;2022-10-30T10:46:41;18.60;99.90
17489;DHT22;8861;52.644;4.734;2022-10-30T10:49:22;18.50;99.90
17489;DHT22;8861;52.644;4.734;2022-10-30T10:51:54;18.50;99.90
17489;DHT22;8861;52.644;4.734;2022-10-30T10:54:24;18.40;99.90
17489;DHT22;8861;52.644;4.734;2022-10-30T10:56:53;18.40;99.90
17489;DHT22;8861;52.644;4.734;2022-10-30T10:59:24;18.40;99.90
17489;DHT22;8861;52.644;4.734;2022-10-30T11:01:58;18.50;99.90
17489;DHT22;8861;52.644;4.734;2022-10-30T11:04:34;18.50;99.90
17489;DHT22;8861;52.644;4.734;2022-10-30T11:07:16;18.40;99.90
17489;DHT22;8861;52.644;4.734;2022-10-30T11:09:45;18.40;99.90
17489;DHT22;8861;52.644;4.734;2022-10-30T11:12:13;18.50;99.90
17489;DHT22;8861;52.644;4.734;2022-10-30T11:14:40;18.60;99.90
17489;DHT22;8861;52.644;4.734;2022-10-30T11:17:14;18.60;99.90
17489;DHT22;8861;52.644;4.734;2022-10-30T11:19:47;18.60;99.90
17489;DHT22;8861;52.644;4.734;2022-10-30T11:22:20;18.60;99.90
17489;DHT22;8861;52.644;4.734;2022-10-30T11:24:48;18.60;99.90
17489;DHT22;8861;52.644;4.734;2022-10-30T11:27:17;18.70;99.90
17489;DHT22;8861;52.644;4.734;2022-10-30T11:29:52;18.70;99.90
17489;DHT22;8861;52.644;4.734;2022-10-30T11:32:21;18.70;99.90
17489;DHT22;8861;52.644;4.734;2022-10-30T11:35:02;18.70;99.90
17489;DHT22;8861;52.644;4.734;2022-10-30T11:37:30;18.80;99.90
17489;DHT22;8861;52.644;4.734;2022-10-30T11:40:01;18.90;99.90
17489;DHT22;8861;52.644;4.734;2022-10-30T11:42:28;19.00;99.90
17489;DHT22;8861;52.644;4.734;2022-10-30T11:44:56;19.00;99.90
17489;DHT22;8861;52.644;4.734;2022-10-30T11:47:28;19.10;99.90
17489;DHT22;8861;52.644;4.734;2022-10-30T11:49:58;19.10;99.90
17489;DHT22;8861;52.644;4.734;2022-10-30T11:52:27;19.20;99.90
17489;DHT22;8861;52.644;4.734;2022-10-30T11:54:56;19.30;99.90
17489;DHT22;8861;52.644;4.734;2022-10-30T11:57:29;19.30;99.90
17489;DHT22;8861;52.644;4.734;2022-10-30T11:59:58;19.30;99.90
17489;DHT22;8861;52.644;4.734;2022-10-30T12:02:28;19.40;99.90
17489;DHT22;8861;52.644;4.734;2022-10-30T12:05:00;19.50;99.90
17489;DHT22;8861;52.644;4.734;2022-10-30T12:07:31;19.50;99.90
17489;DHT22;8861;52.644;4.734;2022-10-30T12:09:58;19.60;99.90
17489;DHT22;8861;52.644;4.734;2022-10-30T12:12:28;19.70;99.90
17489;DHT22;8861;52.644;4.734;2022-10-30T12:15:07;19.70;99.90
17489;DHT22;8861;52.644;4.734;2022-10-30T12:17:37;19.70;99.90
17489;DHT22;8861;52.644;4.734;2022-10-30T12:20:06;19.70;99.90
17489;DHT22;8861;52.644;4.734;2022-10-30T12:22:35;19.70;99.90
17489;DHT22;8861;52.644;4.734;2022-10-30T12:25:05;19.70;99.90
17489;DHT22;8861;52.644;4.734;2022-10-30T12:27:35;19.60;99.90
17489;DHT22;8861;52.644;4.734;2022-10-30T12:30:06;19.60;99.90
17489;DHT22;8861;52.644;4.734;2022-10-30T12:32:46;19.60;99.90
17489;DHT22;8861;52.644;4.734;2022-10-30T12:35:26;19.60;99.90
17489;DHT22;8861;52.644;4.734;2022-10-30T12:37:59;19.50;99.90
17489;DHT22;8861;52.644;4.734;2022-10-30T12:40:30;19.50;99.90
17489;DHT22;8861;52.644;4.734;2022-10-30T12:43:01;19.40;99.90
17489;DHT22;8861;52.644;4.734;2022-10-30T12:45:34;19.40;99.90
17489;DHT22;8861;52.644;4.734;2022-10-30T12:48:08;19.50;99.90
17489;DHT22;8861;52.644;4.734;2022-10-30T12:50:41;19.50;99.90
17489;DHT22;8861;52.644;4.734;2022-10-30T12:53:21;19.50;99.90
17489;DHT22;8861;52.644;4.734;2022-10-30T12:55:54;19.60;99.90
17489;DHT22;8861;52.644;4.734;2022-10-30T12:58:27;19.50;99.90
17489;DHT22;8861;52.644;4.734;2022-10-30T13:01:00;19.50;99.90
17489;DHT22;8861;52.644;4.734;2022-10-30T13:03:34;19.50;99.90
17489;DHT22;8861;52.644;4.734;2022-10-30T13:06:08;19.40;99.90
17489;DHT22;8861;52.644;4.734;2022-10-30T13:08:42;19.50;99.90
17489;DHT22;8861;52.644;4.734;2022-10-30T13:11:18;19.40;99.90
17489;DHT22;8861;52.644;4.734;2022-10-30T13:13:49;19.30;99.90
17489;DHT22;8861;52.644;4.734;2022-10-30T13:16:21;19.20;99.90
17489;DHT22;8861;52.644;4.734;2022-10-30T13:18:55;19.20;99.90
17489;DHT22;8861;52.644;4.734;2022-10-30T13:21:25;19.20;99.90
17489;DHT22;8861;52.644;4.734;2022-10-30T13:23:59;19.10;99.90
17489;DHT22;8861;52.644;4.734;2022-10-30T13:26:33;19.10;99.90
17489;DHT22;8861;52.644;4.734;2022-10-30T13:29:08;19.20;99.90
17489;DHT22;8861;52.644;4.734;2022-10-30T13:31:46;19.30;99.90
17489;DHT22;8861;52.644;4.734;2022-10-30T13:34:25;19.30;99.90
17489;DHT22;8861;52.644;4.734;2022-10-30T13:36:59;19.30;99.90
17489;DHT22;8861;52.644;4.734;2022-10-30T13:39:32;19.40;99.90
17489;DHT22;8861;52.644;4.734;2022-10-30T13:42:19;19.30;99.90
17489;DHT22;8861;52.644;4.734;2022-10-30T13:44:58;19.40;99.90
17489;DHT22;8861;52.644;4.734;2022-10-30T13:47:33;19.50;99.90
17489;DHT22;8861;52.644;4.734;2022-10-30T13:50:27;19.50;99.90
17489;DHT22;8861;52.644;4.734;2022-10-30T13:52:59;19.50;99.90
17489;DHT22;8861;52.644;4.734;2022-10-30T13:55:30;19.50;99.90
17489;DHT22;8861;52.644;4.734;2022-10-30T13:58:02;19.50;99.90
17489;DHT22;8861;52.644;4.734;2022-10-30T14:00:44;19.50;99.90
17489;DHT22;8861;52.644;4.734;2022-10-30T14:03:21;19.50;99.90
17489;DHT22;8861;52.644;4.734;2022-10-30T14:05:53;19.50;99.90
17489;DHT22;8861;52.644;4.734;2022-10-30T14:08:29;19.60;99.90
17489;DHT22;8861;52.644;4.734;2022-10-30T14:11:00;19.80;99.90
17489;DHT22;8861;52.644;4.734;2022-10-30T14:13:46;19.90;99.90
17489;DHT22;8861;52.644;4.734;2022-10-30T14:16:34;20.00;99.90
17489;DHT22;8861;52.644;4.734;2022-10-30T14:19:03;19.90;99.90
17489;DHT22;8861;52.644;4.734;2022-10-30T14:21:49;19.70;99.90
17489;DHT22;8861;52.644;4.734;2022-10-30T14:24:19;19.50;99.90
17489;DHT22;8861;52.644;4.734;2022-10-30T14:26:49;19.30;99.90
17489;DHT22;8861;52.644;4.734;2022-10-30T14:29:43;19.10;99.90
17489;DHT22;8861;52.644;4.734;2022-10-30T14:35:32;18.80;99.90
17489;DHT22;8861;52.644;4.734;2022-10-30T14:38:22;18.70;99.90
17489;DHT22;8861;52.644;4.734;2022-10-30T14:43:47;18.50;99.90
17489;DHT22;8861;52.644;4.734;2022-10-30T14:46:23;18.50;99.90
17489;DHT22;8861;52.644;4.734;2022-10-30T14:48:59;18.30;99.90
17489;DHT22;8861;52.644;4.734;2022-10-30T14:51:32;18.20;99.90
17489;DHT22;8861;52.644;4.734;2022-10-30T14:54:07;18.20;99.90
17489;DHT22;8861;52.644;4.734;2022-10-30T14:56:40;18.20;99.90
17489;DHT22;8861;52.644;4.734;2022-10-30T14:59:31;18.10;99.90
17489;DHT22;8861;52.644;4.734;2022-10-30T15:02:08;18.00;99.90
17489;DHT22;8861;52.644;4.734;2022-10-30T15:04:54;18.00;99.90
17489;DHT22;8861;52.644;4.734;2022-10-30T15:07:30;17.90;99.90
17489;DHT22;8861;52.644;4.734;2022-10-30T15:10:10;17.90;99.90
17489;DHT22;8861;52.644;4.734;2022-10-30T15:13:07;17.80;99.90
17489;DHT22;8861;52.644;4.734;2022-10-30T15:15:37;17.70;99.90
17489;DHT22;8861;52.644;4.734;2022-10-30T15:18:08;17.70;99.90
17489;DHT22;8861;52.644;4.734;2022-10-30T15:20:37;17.60;99.90
17489;DHT22;8861;52.644;4.734;2022-10-30T15:23:08;17.50;99.90
17489;DHT22;8861;52.644;4.734;2022-10-30T15:25:43;17.50;99.90
17489;DHT22;8861;52.644;4.734;2022-10-30T15:28:14;17.50;99.90
17489;DHT22;8861;52.644;4.734;2022-10-30T15:30:57;17.50;99.90
17489;DHT22;8861;52.644;4.734;2022-10-30T15:33:23;17.50;99.90
17489;DHT22;8861;52.644;4.734;2022-10-30T15:35:50;17.50;99.90
17489;DHT22;8861;52.644;4.734;2022-10-30T15:38:17;17.50;99.90
17489;DHT22;8861;52.644;4.734;2022-10-30T15:40:44;17.50;99.90
17489;DHT22;8861;52.644;4.734;2022-10-30T15:43:13;17.50;99.90
17489;DHT22;8861;52.644;4.734;2022-10-30T15:45:42;17.50;99.90
17489;DHT22;8861;52.644;4.734;2022-10-30T15:48:20;17.50;99.90
17489;DHT22;8861;52.644;4.734;2022-10-30T15:50:53;17.40;99.90
17489;DHT22;8861;52.644;4.734;2022-10-30T15:53:23;17.40;99.90
17489;DHT22;8861;52.644;4.734;2022-10-30T15:55:51;17.30;99.90
17489;DHT22;8861;52.644;4.734;2022-10-30T15:58:20;17.30;99.90
17489;DHT22;8861;52.644;4.734;2022-10-30T16:00:55;17.30;99.90
17489;DHT22;8861;52.644;4.734;2022-10-30T16:03:24;17.20;99.90
17489;DHT22;8861;52.644;4.734;2022-10-30T16:06:02;17.10;99.90
17489;DHT22;8861;52.644;4.734;2022-10-30T16:08:29;17.00;99.90
17489;DHT22;8861;52.644;4.734;2022-10-30T16:10:56;17.00;99.90
17489;DHT22;8861;52.644;4.734;2022-10-30T16:13:27;16.90;99.90
17489;DHT22;8861;52.644;4.734;2022-10-30T16:15:54;16.80;99.90
17489;DHT22;8861;52.644;4.734;2022-10-30T16:18:24;16.80;99.90
17489;DHT22;8861;52.644;4.734;2022-10-30T16:20:53;16.70;99.90